sensor_id;sensor_type;location;lat;lon;timestamp;pressure;altitude;pressure_sealevel;temperature;humidity
20160;BME280;50187;50.492;12.134;2023-03-04T09:16:17;97875.28;;;20.47;27.85
20160;BME280;50187;50.492;12.134;2023-03-04T09:19:02;97874.44;;;20.47;28.35
20160;BME280;50187;50.492;12.134;2023-03-04T09:21:48;97868.22;;;20.46;28.27
20160;BME280;50187;50.492;12.134;2023-03-04T09:24:32;97874.53;;;20.55;28.10
20160;BME280;50187;50.492;12.134;2023-03-04T09:27:17;97870.19;;;20.62;27.90
20160;BME280;50187;50.492;12.134;2023-03-04T09:30:03;97868.25;;;20.72;27.86
20160;BME280;50187;50.492;12.134;2023-03-04T09:32:48;97864.88;;;20.70;27.81
20160;BME280;50187;50.492;12.134;2023-03-04T09:35:33;97874.03;;;20.78;27.95
20160;BME280;50187;50.492;12.134;2023-03-04T09:38:19;97870.72;;;20.92;27.38
20160;BME280;50187;50.492;12.134;2023-03-04T09:41:12;97863.16;;;20.96;27.46
20160;BME280;50187;50.492;12.134;2023-03-04T09:43:59;97848.00;;;21.03;27.40
20160;BME280;50187;50.492;12.134;2023-03-04T09:46:47;97856.44;;;21.08;27.20
20160;BME280;50187;50.492;12.134;2023-03-04T09:49:37;97839.72;;;21.04;27.30
20160;BME280;50187;50.492;12.134;2023-03-04T09:55:41;97851.78;;;21.18;27.09
20160;BME280;50187;50.492;12.134;2023-03-04T10:01:35;97852.44;;;21.20;27.08
20160;BME280;50187;50.492;12.134;2023-03-04T10:04:35;97845.72;;;21.24;26.93
20160;BME280;50187;50.492;12.134;2023-03-04T10:07:27;97847.25;;;21.27;27.00
20160;BME280;50187;50.492;12.134;2023-03-04T10:10:23;97845.38;;;21.27;27.12
20160;BME280;50187;50.492;12.134;2023-03-04T10:13:13;97840.66;;;21.30;26.83
20160;BME280;50187;50.492;12.134;2023-03-04T10:16:02;97845.56;;;21.34;26.80
20160;BME280;50187;50.492;12.134;2023-03-04T10:18:55;97843.69;;;21.26;26.92
20160;BME280;50187;50.492;12.134;2023-03-04T10:21:44;97847.91;;;21.29;27.13
20160;BME280;50187;50.492;12.134;2023-03-04T10:24:30;97833.72;;;21.27;26.90
20160;BME280;50187;50.492;12.134;2023-03-04T10:27:17;97844.00;;;21.23;27.01
20160;BME280;50187;50.492;12.134;2023-03-04T10:30:16;97837.44;;;21.26;27.11
20160;BME280;50187;50.492;12.134;2023-03-04T10:33:14;97839.50;;;21.32;27.03
20160;BME280;50187;50.492;12.134;2023-03-04T10:36:24;97835.94;;;21.32;27.01
20160;BME280;50187;50.492;12.134;2023-03-04T10:39:28;97826.97;;;21.31;26.81
20160;BME280;50187;50.492;12.134;2023-03-04T10:44:59;97829.88;;;21.38;26.80
20160;BME280;50187;50.492;12.134;2023-03-04T10:47:54;97833.25;;;21.40;26.65
20160;BME280;50187;50.492;12.134;2023-03-04T10:50:39;97817.53;;;21.43;26.64
20160;BME280;50187;50.492;12.134;2023-03-04T10:53:35;97820.72;;;21.39;26.76
20160;BME280;50187;50.492;12.134;2023-03-04T10:56:41;97815.81;;;21.34;26.79
20160;BME280;50187;50.492;12.134;2023-03-04T11:02:30;97814.84;;;21.43;26.63
20160;BME280;50187;50.492;12.134;2023-03-04T11:05:21;97806.19;;;21.40;26.91
20160;BME280;50187;50.492;12.134;2023-03-04T11:08:16;97811.28;;;21.43;26.82
20160;BME280;50187;50.492;12.134;2023-03-04T11:11:02;97796.19;;;21.40;26.61
20160;BME280;50187;50.492;12.134;2023-03-04T11:13:59;97802.94;;;21.36;26.98
20160;BME280;50187;50.492;12.134;2023-03-04T11:16:55;97798.91;;;21.40;26.87
20160;BME280;50187;50.492;12.134;2023-03-04T11:19:43;97795.03;;;21.43;26.81
20160;BME280;50187;50.492;12.134;2023-03-04T11:22:31;97797.53;;;21.36;26.76
20160;BME280;50187;50.492;12.134;2023-03-04T11:25:26;97797.88;;;21.33;26.78
20160;BME280;50187;50.492;12.134;2023-03-04T11:28:21;97799.94;;;21.39;26.84
20160;BME280;50187;50.492;12.134;2023-03-04T11:31:13;97792.00;;;21.38;26.84
20160;BME280;50187;50.492;12.134;2023-03-04T11:37:21;97786.22;;;21.33;26.78
20160;BME280;50187;50.492;12.134;2023-03-04T11:40:12;97777.44;;;21.39;26.87
20160;BME280;50187;50.492;12.134;2023-03-04T11:43:04;97776.91;;;21.27;27.14
20160;BME280;50187;50.492;12.134;2023-03-04T11:49:07;97772.69;;;21.33;26.75
20160;BME280;50187;50.492;12.134;2023-03-04T11:52:00;97776.72;;;21.28;27.03
20160;BME280;50187;50.492;12.134;2023-03-04T11:57:59;97768.47;;;21.38;26.86
20160;BME280;50187;50.492;12.134;2023-03-04T12:00:53;97766.75;;;21.29;26.74
20160;BME280;50187;50.492;12.134;2023-03-04T12:15:46;97752.75;;;21.34;26.82
20160;BME280;50187;50.492;12.134;2023-03-04T12:22:02;97742.22;;;21.31;26.82
20160;BME280;50187;50.492;12.134;2023-03-04T12:25:06;97738.88;;;21.37;26.74
20160;BME280;50187;50.492;12.134;2023-03-04T12:34:23;97723.66;;;21.36;26.92
20160;BME280;50187;50.492;12.134;2023-03-04T12:40:22;97721.63;;;21.30;26.96
20160;BME280;50187;50.492;12.134;2023-03-04T12:53:11;97712.13;;;21.25;26.91
20160;BME280;50187;50.492;12.134;2023-03-04T12:55:59;97715.19;;;21.22;27.10
20160;BME280;50187;50.492;12.134;2023-03-04T12:58:45;97712.13;;;21.25;26.99
20160;BME280;50187;50.492;12.134;2023-03-04T13:01:43;97698.94;;;21.31;26.97
20160;BME280;50187;50.492;12.134;2023-03-04T13:04:56;97708.09;;;21.30;26.81
20160;BME280;50187;50.492;12.134;2023-03-04T13:10:35;97709.44;;;21.34;26.79
20160;BME280;50187;50.492;12.134;2023-03-04T13:13:38;97692.53;;;21.32;26.96
20160;BME280;50187;50.492;12.134;2023-03-04T13:20:31;97701.50;;;21.32;26.92
20160;BME280;50187;50.492;12.134;2023-03-04T13:23:23;97698.59;;;21.25;26.91
20160;BME280;50187;50.492;12.134;2023-03-04T13:32:34;97695.22;;;21.32;27.11
20160;BME280;50187;50.492;12.134;2023-03-04T13:38:36;97692.69;;;21.30;27.02
20160;BME280;50187;50.492;12.134;2023-03-04T13:41:31;97698.28;;;21.28;26.84
20160;BME280;50187;50.492;12.134;2023-03-04T13:47:39;97699.44;;;21.26;26.91
20160;BME280;50187;50.492;12.134;2023-03-04T13:50:39;97693.88;;;21.27;26.89
20160;BME280;50187;50.492;12.134;2023-03-04T13:56:25;97681.38;;;21.26;27.08
20160;BME280;50187;50.492;12.134;2023-03-04T14:02:14;97680.00;;;21.22;26.91
20160;BME280;50187;50.492;12.134;2023-03-04T14:05:02;97675.44;;;21.23;27.17
20160;BME280;50187;50.492;12.134;2023-03-04T14:07:47;97673.41;;;21.25;27.08
20160;BME280;50187;50.492;12.134;2023-03-04T14:10:33;97675.63;;;21.30;26.88
20160;BME280;50187;50.492;12.134;2023-03-04T14:13:18;97672.91;;;21.21;27.12
20160;BME280;50187;50.492;12.134;2023-03-04T14:16:04;97671.72;;;21.24;27.04
20160;BME280;50187;50.492;12.134;2023-03-04T14:19:05;97669.50;;;21.27;26.88
20160;BME280;50187;50.492;12.134;2023-03-04T14:21:52;97660.03;;;21.23;27.00
20160;BME280;50187;50.492;12.134;2023-03-04T14:24:37;97654.97;;;21.20;27.21
20160;BME280;50187;50.492;12.134;2023-03-04T14:27:22;97655.16;;;21.27;27.02
20160;BME280;50187;50.492;12.134;2023-03-04T14:30:21;97655.50;;;21.24;27.21
20160;BME280;50187;50.492;12.134;2023-03-04T14:33:28;97644.66;;;21.16;27.22
20160;BME280;50187;50.492;12.134;2023-03-04T14:36:19;97651.63;;;21.26;27.14
20160;BME280;50187;50.492;12.134;2023-03-04T14:39:06;97651.44;;;21.28;26.99
20160;BME280;50187;50.492;12.134;2023-03-04T14:41:55;97644.66;;;21.24;27.13
20160;BME280;50187;50.492;12.134;2023-03-04T14:44:46;97652.28;;;21.28;27.07
20160;BME280;50187;50.492;12.134;2023-03-04T14:47:39;97643.66;;;21.33;26.96
20160;BME280;50187;50.492;12.134;2023-03-04T14:50:26;97641.47;;;21.28;27.11
20160;BME280;50187;50.492;12.134;2023-03-04T14:53:15;97639.41;;;21.31;26.97
20160;BME280;50187;50.492;12.134;2023-03-04T14:56:03;97629.28;;;21.33;27.03
20160;BME280;50187;50.492;12.134;2023-03-04T14:58:54;97643.50;;;21.26;27.15
20160;BME280;50187;50.492;12.134;2023-03-04T15:01:39;97632.97;;;21.23;27.20
20160;BME280;50187;50.492;12.134;2023-03-04T15:04:25;97627.59;;;21.32;26.96
20160;BME280;50187;50.492;12.134;2023-03-04T15:07:15;97624.69;;;21.25;26.89
20160;BME280;50187;50.492;12.134;2023-03-04T15:10:04;97626.06;;;21.29;26.92
20160;BME280;50187;50.492;12.134;2023-03-04T15:12:54;97624.03;;;21.31;26.81
20160;BME280;50187;50.492;12.134;2023-03-04T15:15:45;97635.69;;;21.23;27.20
20160;BME280;50187;50.492;12.134;2023-03-04T15:18:31;97623.03;;;21.24;27.19
20160;BME280;50187;50.492;12.134;2023-03-04T15:24:06;97620.66;;;21.29;26.92
20160;BME280;50187;50.492;12.134;2023-03-04T15:26:52;97615.41;;;21.27;27.06
20160;BME280;50187;50.492;12.134;2023-03-04T15:29:37;97630.63;;;21.28;26.87
20160;BME280;50187;50.492;12.134;2023-03-04T15:32:29;97618.47;;;21.33;26.77
20160;BME280;50187;50.492;12.134;2023-03-04T15:35:17;97615.75;;;21.24;26.91
20160;BME280;50187;50.492;12.134;2023-03-04T15:38:05;97615.41;;;21.27;26.90
20160;BME280;50187;50.492;12.134;2023-03-04T15:40:51;97608.81;;;21.30;26.84
20160;BME280;50187;50.492;12.134;2023-03-04T15:43:38;97621.34;;;21.31;27.07
20160;BME280;50187;50.492;12.134;2023-03-04T15:46:23;97607.81;;;21.31;26.89
20160;BME280;50187;50.492;12.134;2023-03-04T15:49:09;97611.19;;;21.33;27.04
20160;BME280;50187;50.492;12.134;2023-03-04T15:51:55;97607.13;;;21.37;26.87
20160;BME280;50187;50.492;12.134;2023-03-04T15:54:41;97603.56;;;21.28;27.09
20160;BME280;50187;50.492;12.134;2023-03-04T15:57:26;97611.34;;;21.32;27.04
20160;BME280;50187;50.492;12.134;2023-03-04T16:00:13;97608.47;;;21.33;27.05
20160;BME280;50187;50.492;12.134;2023-03-04T16:02:58;97613.56;;;21.28;27.17
20160;BME280;50187;50.492;12.134;2023-03-04T16:05:46;97613.03;;;21.24;27.23
20160;BME280;50187;50.492;12.134;2023-03-04T16:08:32;97610.50;;;21.31;27.07
20160;BME280;50187;50.492;12.134;2023-03-04T16:11:22;97614.06;;;21.32;27.00
20160;BME280;50187;50.492;12.134;2023-03-04T16:14:10;97607.28;;;21.27;26.88
20160;BME280;50187;50.492;12.134;2023-03-04T16:16:57;97611.00;;;21.35;26.93
20160;BME280;50187;50.492;12.134;2023-03-04T16:19:42;97610.00;;;21.36;27.04
20160;BME280;50187;50.492;12.134;2023-03-04T16:22:28;97606.63;;;21.25;26.95
20160;BME280;50187;50.492;12.134;2023-03-04T16:25:15;97603.56;;;21.20;27.24
20160;BME280;50187;50.492;12.134;2023-03-04T16:28:01;97601.88;;;21.27;27.21
20160;BME280;50187;50.492;12.134;2023-03-04T16:30:48;97596.28;;;21.29;26.86
20160;BME280;50187;50.492;12.134;2023-03-04T16:33:34;97606.81;;;21.24;27.13
20160;BME280;50187;50.492;12.134;2023-03-04T16:36:22;97604.25;;;21.31;27.15
20160;BME280;50187;50.492;12.134;2023-03-04T16:39:15;97600.88;;;21.28;27.00
20160;BME280;50187;50.492;12.134;2023-03-04T16:42:01;97595.13;;;21.23;26.97
20160;BME280;50187;50.492;12.134;2023-03-04T16:44:48;97611.16;;;21.25;27.06
20160;BME280;50187;50.492;12.134;2023-03-04T16:47:33;97604.09;;;21.32;27.08
20160;BME280;50187;50.492;12.134;2023-03-04T16:50:22;97605.09;;;21.31;27.13
20160;BME280;50187;50.492;12.134;2023-03-04T16:53:24;97581.75;;;21.30;26.98
20160;BME280;50187;50.492;12.134;2023-03-04T16:56:17;97600.53;;;21.32;26.83
20160;BME280;50187;50.492;12.134;2023-03-04T16:59:03;97599.00;;;21.29;27.06
20160;BME280;50187;50.492;12.134;2023-03-04T17:01:48;97600.88;;;21.20;27.22
20160;BME280;50187;50.492;12.134;2023-03-04T17:04:33;97603.56;;;21.28;27.02
20160;BME280;50187;50.492;12.134;2023-03-04T17:07:18;97604.25;;;21.31;27.07
20160;BME280;50187;50.492;12.134;2023-03-04T17:10:03;97607.47;;;21.26;27.12
20160;BME280;50187;50.492;12.134;2023-03-04T17:12:49;97611.53;;;21.30;26.92
20160;BME280;50187;50.492;12.134;2023-03-04T17:15:35;97610.16;;;21.34;26.94
20160;BME280;50187;50.492;12.134;2023-03-04T17:18:20;97612.22;;;21.32;27.10
20160;BME280;50187;50.492;12.134;2023-03-04T17:21:09;97618.28;;;21.26;27.01
20160;BME280;50187;50.492;12.134;2023-03-04T17:23:54;97615.75;;;21.33;27.10
20160;BME280;50187;50.492;12.134;2023-03-04T17:26:40;97612.03;;;21.34;26.93
20160;BME280;50187;50.492;12.134;2023-03-04T17:29:26;97616.94;;;21.30;27.07
20160;BME280;50187;50.492;12.134;2023-03-04T17:32:11;97617.47;;;21.34;27.06
20160;BME280;50187;50.492;12.134;2023-03-04T17:34:56;97620.00;;;21.35;26.90
20160;BME280;50187;50.492;12.134;2023-03-04T17:37:41;97622.69;;;21.27;26.89
20160;BME280;50187;50.492;12.134;2023-03-04T17:40:26;97624.03;;;21.31;26.98
20160;BME280;50187;50.492;12.134;2023-03-04T17:43:11;97625.56;;;21.34;26.96
20160;BME280;50187;50.492;12.134;2023-03-04T17:46:07;97633.00;;;21.32;27.00
20160;BME280;50187;50.492;12.134;2023-03-04T17:48:56;97629.47;;;21.31;26.94
20160;BME280;50187;50.492;12.134;2023-03-04T17:51:43;97633.34;;;21.37;27.04
20160;BME280;50187;50.492;12.134;2023-03-04T17:54:29;97639.41;;;21.39;27.06
20160;BME280;50187;50.492;12.134;2023-03-04T17:57:14;97624.88;;;21.32;26.93
20160;BME280;50187;50.492;12.134;2023-03-04T17:59:59;97627.25;;;21.35;26.94
20160;BME280;50187;50.492;12.134;2023-03-04T18:02:47;97628.78;;;21.37;27.00
20160;BME280;50187;50.492;12.134;2023-03-04T18:05:32;97627.41;;;21.33;26.91
20160;BME280;50187;50.492;12.134;2023-03-04T18:08:17;97629.94;;;21.35;26.99
20160;BME280;50187;50.492;12.134;2023-03-04T18:11:02;97630.28;;;21.40;27.07
20160;BME280;50187;50.492;12.134;2023-03-04T18:13:48;97630.13;;;21.33;26.85
20160;BME280;50187;50.492;12.134;2023-03-04T18:16:33;97625.41;;;21.35;27.05
20160;BME280;50187;50.492;12.134;2023-03-04T18:19:19;97622.19;;;21.40;26.85
20160;BME280;50187;50.492;12.134;2023-03-04T18:22:03;97620.47;;;21.39;26.84
20160;BME280;50187;50.492;12.134;2023-03-04T18:24:49;97617.47;;;21.34;27.06
20160;BME280;50187;50.492;12.134;2023-03-04T18:27:34;97618.13;;;21.36;27.07
20160;BME280;50187;50.492;12.134;2023-03-04T18:30:19;97616.09;;;21.38;27.03
20160;BME280;50187;50.492;12.134;2023-03-04T18:33:10;97630.28;;;21.32;26.98
20160;BME280;50187;50.492;12.134;2023-03-04T18:35:57;97621.00;;;21.34;27.15
20160;BME280;50187;50.492;12.134;2023-03-04T18:38:43;97614.41;;;21.37;27.05
20160;BME280;50187;50.492;12.134;2023-03-04T18:41:28;97612.34;;;21.31;27.11
20160;BME280;50187;50.492;12.134;2023-03-04T18:44:14;97613.22;;;21.31;26.93
20160;BME280;50187;50.492;12.134;2023-03-04T18:46:59;97616.25;;;21.36;26.95
20160;BME280;50187;50.492;12.134;2023-03-04T18:49:45;97613.06;;;21.33;26.88
20160;BME280;50187;50.492;12.134;2023-03-04T18:52:30;97614.06;;;21.32;27.11
20160;BME280;50187;50.492;12.134;2023-03-04T18:55:15;97614.56;;;21.35;27.11
20160;BME280;50187;50.492;12.134;2023-03-04T18:58:02;97609.66;;;21.39;26.83
20160;BME280;50187;50.492;12.134;2023-03-04T19:00:48;97609.66;;;21.31;27.14
20160;BME280;50187;50.492;12.134;2023-03-04T19:03:33;97605.59;;;21.35;27.03
20160;BME280;50187;50.492;12.134;2023-03-04T19:06:21;97604.25;;;21.39;26.88
20160;BME280;50187;50.492;12.134;2023-03-04T19:09:09;97605.59;;;21.35;26.90
20160;BME280;50187;50.492;12.134;2023-03-04T19:11:54;97600.00;;;21.36;27.08
20160;BME280;50187;50.492;12.134;2023-03-04T19:14:39;97600.53;;;21.40;26.98
20160;BME280;50187;50.492;12.134;2023-03-04T19:17:25;97614.91;;;21.40;26.91
20160;BME280;50187;50.492;12.134;2023-03-04T19:20:13;97604.94;;;21.33;27.11
20160;BME280;50187;50.492;12.134;2023-03-04T19:22:58;97615.94;;;21.39;26.98
20160;BME280;50187;50.492;12.134;2023-03-04T19:25:43;97620.16;;;21.42;26.91
20160;BME280;50187;50.492;12.134;2023-03-04T19:28:28;97618.13;;;21.36;27.10
20160;BME280;50187;50.492;12.134;2023-03-04T19:31:13;97617.13;;;21.37;26.94
20160;BME280;50187;50.492;12.134;2023-03-04T19:33:59;97618.81;;;21.38;26.96
20160;BME280;50187;50.492;12.134;2023-03-04T19:36:44;97613.53;;;21.36;26.92
20160;BME280;50187;50.492;12.134;2023-03-04T19:39:29;97621.84;;;21.26;27.04
20160;BME280;50187;50.492;12.134;2023-03-04T19:42:15;97616.41;;;21.35;27.11
20160;BME280;50187;50.492;12.134;2023-03-04T19:45:01;97612.34;;;21.39;27.03
20160;BME280;50187;50.492;12.134;2023-03-04T19:47:53;97609.50;;;21.32;27.22
20160;BME280;50187;50.492;12.134;2023-03-04T19:50:39;97619.81;;;21.37;26.97
20160;BME280;50187;50.492;12.134;2023-03-04T19:53:24;97624.22;;;21.38;26.92
20160;BME280;50187;50.492;12.134;2023-03-04T19:56:10;97618.81;;;21.38;27.16
20160;BME280;50187;50.492;12.134;2023-03-04T19:58:55;97620.47;;;21.39;27.19
20160;BME280;50187;50.492;12.134;2023-03-04T20:01:41;97616.75;;;21.40;26.97
20160;BME280;50187;50.492;12.134;2023-03-04T20:04:27;97621.16;;;21.41;26.97
20160;BME280;50187;50.492;12.134;2023-03-04T20:07:12;97626.25;;;21.36;27.00
20160;BME280;50187;50.492;12.134;2023-03-04T20:09:58;97625.88;;;21.39;27.07
20160;BME280;50187;50.492;12.134;2023-03-04T20:12:43;97625.41;;;21.35;27.09
20160;BME280;50187;50.492;12.134;2023-03-04T20:15:28;97623.19;;;21.31;27.16
20160;BME280;50187;50.492;12.134;2023-03-04T20:18:13;97621.81;;;21.35;27.05
20160;BME280;50187;50.492;12.134;2023-03-04T20:20:58;97617.13;;;21.37;27.07
20160;BME280;50187;50.492;12.134;2023-03-04T20:23:44;97613.41;;;21.38;27.10
20160;BME280;50187;50.492;12.134;2023-03-04T20:26:30;97618.81;;;21.30;27.20
20160;BME280;50187;50.492;12.134;2023-03-04T20:29:16;97620.00;;;21.35;27.03
20160;BME280;50187;50.492;12.134;2023-03-04T20:32:02;97620.81;;;21.36;26.97
20160;BME280;50187;50.492;12.134;2023-03-04T20:34:47;97616.09;;;21.30;27.21
20160;BME280;50187;50.492;12.134;2023-03-04T20:37:35;97624.03;;;21.31;27.11
20160;BME280;50187;50.492;12.134;2023-03-04T20:40:20;97617.47;;;21.34;27.02
20160;BME280;50187;50.492;12.134;2023-03-04T20:43:05;97619.47;;;21.32;27.05
20160;BME280;50187;50.492;12.134;2023-03-04T20:45:51;97624.88;;;21.32;27.09
20160;BME280;50187;50.492;12.134;2023-03-04T20:48:36;97627.06;;;21.36;26.98
20160;BME280;50187;50.492;12.134;2023-03-04T20:51:22;97629.78;;;21.36;26.95
20160;BME280;50187;50.492;12.134;2023-03-04T20:54:10;97635.69;;;21.32;27.21
20160;BME280;50187;50.492;12.134;2023-03-04T20:56:55;97635.34;;;21.35;26.99
20160;BME280;50187;50.492;12.134;2023-03-04T20:59:40;97633.34;;;21.37;27.10
20160;BME280;50187;50.492;12.134;2023-03-04T21:02:25;97629.47;;;21.39;27.19
20160;BME280;50187;50.492;12.134;2023-03-04T21:05:11;97627.41;;;21.33;27.13
20160;BME280;50187;50.492;12.134;2023-03-04T21:07:57;97626.41;;;21.26;27.20
20160;BME280;50187;50.492;12.134;2023-03-04T21:10:42;97628.44;;;21.24;27.26
20160;BME280;50187;50.492;12.134;2023-03-04T21:13:27;97630.13;;;21.17;27.14
20160;BME280;50187;50.492;12.134;2023-03-04T21:16:16;97621.13;;;21.08;27.31
20160;BME280;50187;50.492;12.134;2023-03-04T21:19:01;97621.28;;;20.98;27.54
20160;BME280;50187;50.492;12.134;2023-03-04T21:21:48;97619.78;;;20.96;27.37
20160;BME280;50187;50.492;12.134;2023-03-04T21:24:35;97619.09;;;20.93;27.46
20160;BME280;50187;50.492;12.134;2023-03-04T21:27:20;97605.91;;;20.90;27.52
20160;BME280;50187;50.492;12.134;2023-03-04T21:30:06;97610.28;;;20.83;27.39
20160;BME280;50187;50.492;12.134;2023-03-04T21:32:51;97604.53;;;20.78;27.63
20160;BME280;50187;50.492;12.134;2023-03-04T21:35:38;97596.75;;;20.75;27.70
20160;BME280;50187;50.492;12.134;2023-03-04T21:38:23;97601.31;;;20.74;27.59
20160;BME280;50187;50.492;12.134;2023-03-04T21:41:12;97612.44;;;20.71;27.51
20160;BME280;50187;50.492;12.134;2023-03-04T21:43:58;97603.09;;;20.66;27.70
20160;BME280;50187;50.492;12.134;2023-03-04T21:46:43;97610.88;;;20.61;27.81
20160;BME280;50187;50.492;12.134;2023-03-04T21:49:29;97608.69;;;20.64;27.80
20160;BME280;50187;50.492;12.134;2023-03-04T21:52:14;97601.78;;;20.62;27.75
20160;BME280;50187;50.492;12.134;2023-03-04T21:55:00;97611.06;;;20.59;27.79
20160;BME280;50187;50.492;12.134;2023-03-04T21:57:45;97610.16;;;20.50;27.94
20160;BME280;50187;50.492;12.134;2023-03-04T22:00:30;97611.19;;;20.49;27.77
20160;BME280;50187;50.492;12.134;2023-03-04T22:03:16;97611.84;;;20.51;27.78
20160;BME280;50187;50.492;12.134;2023-03-04T22:06:03;97618.25;;;20.50;27.92
20160;BME280;50187;50.492;12.134;2023-03-04T22:08:49;97605.41;;;20.44;27.97
20160;BME280;50187;50.492;12.134;2023-03-04T22:11:35;97604.75;;;20.42;27.88
20160;BME280;50187;50.492;12.134;2023-03-04T22:14:20;97606.25;;;20.45;28.05
20160;BME280;50187;50.492;12.134;2023-03-04T22:17:05;97608.81;;;20.46;27.94
20160;BME280;50187;50.492;12.134;2023-03-04T22:19:51;97608.81;;;20.46;27.96
20160;BME280;50187;50.492;12.134;2023-03-04T22:22:35;97606.59;;;20.41;27.98
20160;BME280;50187;50.492;12.134;2023-03-04T22:25:20;97592.03;;;20.34;28.03
20160;BME280;50187;50.492;12.134;2023-03-04T22:28:06;97603.03;;;20.41;28.00
20160;BME280;50187;50.492;12.134;2023-03-04T22:30:52;97598.31;;;20.43;27.94
20160;BME280;50187;50.492;12.134;2023-03-04T22:33:36;97608.28;;;20.42;27.84
20160;BME280;50187;50.492;12.134;2023-03-04T22:36:21;97575.63;;;20.28;27.94
20160;BME280;50187;50.492;12.134;2023-03-04T22:39:10;97600.69;;;20.38;28.00
20160;BME280;50187;50.492;12.134;2023-03-04T22:41:55;97596.94;;;20.39;28.10
20160;BME280;50187;50.492;12.134;2023-03-04T22:44:40;97598.66;;;20.40;28.07
20160;BME280;50187;50.492;12.134;2023-03-04T22:47:25;97602.69;;;20.36;27.95
20160;BME280;50187;50.492;12.134;2023-03-04T22:50:11;97600.16;;;20.34;28.17
20160;BME280;50187;50.492;12.134;2023-03-04T22:52:56;97593.22;;;20.32;28.08
20160;BME280;50187;50.492;12.134;2023-03-04T22:55:42;97598.66;;;20.40;28.03
20160;BME280;50187;50.492;12.134;2023-03-04T22:58:27;97603.53;;;20.36;28.15
20160;BME280;50187;50.492;12.134;2023-03-04T23:01:13;97609.59;;;20.30;28.15
20160;BME280;50187;50.492;12.134;2023-03-04T23:04:00;97603.34;;;20.30;27.94
20160;BME280;50187;50.492;12.134;2023-03-04T23:06:46;97610.13;;;20.34;28.07
20160;BME280;50187;50.492;12.134;2023-03-04T23:09:31;97612.81;;;20.34;28.00
20160;BME280;50187;50.492;12.134;2023-03-04T23:12:16;97613.66;;;20.34;27.92
20160;BME280;50187;50.492;12.134;2023-03-04T23:15:01;97615.84;;;20.31;28.08
20160;BME280;50187;50.492;12.134;2023-03-04T23:17:47;97623.78;;;20.32;28.08
20160;BME280;50187;50.492;12.134;2023-03-04T23:20:32;97612.81;;;20.34;28.00
20160;BME280;50187;50.492;12.134;2023-03-04T23:23:17;97595.06;;;20.31;28.00
20160;BME280;50187;50.492;12.134;2023-03-04T23:26:03;97607.91;;;20.29;28.03
20160;BME280;50187;50.492;12.134;2023-03-04T23:28:49;97603.50;;;20.28;28.23
20160;BME280;50187;50.492;12.134;2023-03-04T23:31:34;97596.06;;;20.30;28.00
20160;BME280;50187;50.492;12.134;2023-03-04T23:34:20;97587.31;;;20.28;28.04
20160;BME280;50187;50.492;12.134;2023-03-04T23:37:06;97592.88;;;20.27;28.07
20160;BME280;50187;50.492;12.134;2023-03-04T23:39:51;97591.34;;;20.24;28.18
20160;BME280;50187;50.492;12.134;2023-03-04T23:42:37;97586.78;;;20.24;28.03
20160;BME280;50187;50.492;12.134;2023-03-04T23:45:22;97585.59;;;20.27;27.98
20160;BME280;50187;50.492;12.134;2023-03-04T23:48:07;97586.59;;;20.26;28.13
20160;BME280;50187;50.492;12.134;2023-03-04T23:50:53;97578.31;;;20.19;28.14
20160;BME280;50187;50.492;12.134;2023-03-04T23:53:39;97587.94;;;20.22;28.09
20160;BME280;50187;50.492;12.134;2023-03-04T23:56:27;97585.09;;;20.23;28.12
20160;BME280;50187;50.492;12.134;2023-03-04T23:59:13;97580.50;;;20.16;28.15
